createdAt,value
2023-05-03T00:00:18.832Z,9.23
2023-05-03T00:02:53.133Z,8.63
2023-05-03T00:05:28.241Z,9.03
2023-05-03T00:08:02.098Z,8.53
2023-05-03T00:10:29.607Z,8.43
2023-05-03T00:13:03.126Z,9.00
2023-05-03T00:15:30.218Z,8.03
2023-05-03T00:18:04.154Z,8.67
2023-05-03T00:20:31.573Z,9.80
2023-05-03T00:23:06.043Z,8.97
2023-05-03T00:25:39.173Z,9.30
2023-05-03T00:28:14.262Z,9.57
2023-05-03T00:30:41.386Z,9.70
2023-05-03T00:33:15.105Z,9.40
2023-05-03T00:35:42.444Z,9.97
2023-05-03T00:38:16.139Z,9.93
2023-05-03T00:40:50.162Z,9.60
2023-05-03T00:43:24.178Z,9.20
2023-05-03T00:46:08.716Z,9.50
2023-05-03T00:48:49.151Z,9.67
2023-05-03T00:51:16.816Z,8.83
2023-05-03T00:53:51.079Z,8.77
2023-05-03T00:56:29.517Z,9.63
2023-05-03T00:59:03.123Z,10.00
2023-05-03T01:02:12.080Z,10.07
2023-05-03T01:04:46.135Z,10.27
2023-05-03T01:07:27.207Z,9.53
2023-05-03T01:10:08.071Z,10.83
2023-05-03T01:13:00.145Z,10.87
2023-05-03T01:15:48.747Z,10.63
2023-05-03T01:18:36.079Z,11.93
2023-05-03T01:21:05.354Z,10.87
2023-05-03T01:23:48.068Z,11.60
2023-05-03T01:26:22.630Z,11.00
2023-05-03T01:28:57.102Z,11.43
2023-05-03T01:31:50.134Z,11.50
2023-05-03T01:34:44.120Z,11.43
2023-05-03T01:37:20.142Z,11.47
2023-05-03T01:40:17.856Z,10.97
2023-05-03T01:42:52.063Z,12.10
2023-05-03T01:45:26.116Z,11.43
2023-05-03T01:48:00.154Z,11.67
2023-05-03T01:50:34.081Z,12.43
2023-05-03T01:53:08.107Z,12.20
2023-05-03T01:55:43.066Z,12.17
2023-05-03T01:58:17.075Z,12.80
2023-05-03T02:00:46.623Z,12.10
2023-05-03T02:03:27.093Z,12.00
2023-05-03T02:05:54.204Z,13.00
2023-05-03T02:08:28.126Z,11.77
2023-05-03T02:10:55.453Z,12.13
2023-05-03T02:13:29.119Z,11.53
2023-05-03T02:15:56.254Z,11.90
2023-05-03T02:18:30.094Z,11.93
2023-05-03T02:21:04.158Z,11.97
2023-05-03T02:23:38.089Z,13.30
2023-05-03T02:26:13.122Z,12.13
2023-05-03T02:28:40.218Z,11.10
2023-05-03T02:31:14.132Z,12.17
2023-05-03T02:33:41.430Z,12.40
2023-05-03T02:36:15.138Z,12.53
2023-05-03T02:38:42.201Z,14.07
2023-05-03T02:41:16.128Z,12.83
2023-05-03T02:43:43.168Z,11.87
2023-05-03T02:46:17.139Z,12.93
2023-05-03T02:48:44.298Z,12.00
2023-05-03T02:51:11.312Z,12.07
2023-05-03T02:53:45.108Z,11.53
2023-05-03T02:56:12.304Z,13.77
2023-05-03T02:58:39.448Z,12.87
2023-05-03T03:01:13.143Z,11.70
2023-05-03T03:03:47.315Z,11.53
2023-05-03T03:06:27.169Z,12.43
2023-05-03T03:09:01.090Z,12.90
2023-05-03T03:11:35.085Z,12.33
2023-05-03T03:14:02.474Z,11.47
2023-05-03T03:16:36.225Z,11.43
2023-05-03T03:19:10.093Z,12.20
2023-05-03T03:21:44.154Z,12.80
2023-05-03T03:24:11.513Z,11.90
2023-05-03T03:26:45.134Z,12.17
2023-05-03T03:29:19.094Z,12.73
2023-05-03T03:31:53.187Z,14.17
2023-05-03T03:34:21.539Z,13.90
2023-05-03T03:36:55.091Z,14.03
2023-05-03T03:39:22.212Z,13.77
2023-05-03T03:41:56.115Z,15.40
2023-05-03T03:44:30.479Z,15.23
2023-05-03T03:47:04.194Z,16.40
2023-05-03T03:49:38.151Z,16.73
2023-05-03T03:52:06.386Z,16.47
2023-05-03T03:54:35.846Z,14.53
2023-05-03T03:57:12.105Z,16.00
2023-05-03T03:59:46.109Z,16.17
2023-05-03T04:02:20.148Z,16.53
2023-05-03T04:05:01.115Z,16.30
2023-05-03T04:07:35.111Z,17.20
2023-05-03T04:10:02.336Z,18.17
2023-05-03T04:12:37.155Z,18.33
2023-05-03T04:15:05.496Z,19.17
2023-05-03T04:17:41.209Z,20.87
2023-05-03T04:20:11.286Z,20.50
2023-05-03T04:22:48.175Z,19.07
2023-05-03T04:25:17.391Z,18.70
2023-05-03T04:27:53.210Z,21.43
2023-05-03T04:30:20.874Z,21.03
2023-05-03T04:33:02.163Z,21.93
2023-05-03T04:35:29.325Z,20.50
2023-05-03T04:38:03.301Z,22.33
2023-05-03T04:40:50.387Z,20.57
2023-05-03T04:43:25.208Z,21.43
2023-05-03T04:46:00.312Z,20.57
2023-05-03T04:48:34.247Z,22.67
2023-05-03T04:51:02.820Z,20.33
2023-05-03T04:53:36.230Z,21.07
2023-05-03T04:56:05.292Z,21.37
2023-05-03T04:58:39.233Z,20.50
2023-05-03T05:01:09.370Z,19.73
2023-05-03T05:03:50.529Z,19.53
2023-05-03T05:06:31.196Z,19.23
2023-05-03T05:08:58.633Z,19.37
2023-05-03T05:11:32.262Z,18.57
2023-05-03T05:14:07.219Z,19.47
2023-05-03T05:16:41.256Z,19.50
2023-05-03T05:19:16.244Z,17.80
2023-05-03T05:21:50.111Z,18.67
2023-05-03T05:24:34.086Z,19.03
2023-05-03T05:27:14.212Z,18.07
2023-05-03T05:29:42.403Z,18.40
2023-05-03T05:32:16.280Z,17.67
2023-05-03T05:34:45.877Z,17.67
2023-05-03T05:37:22.276Z,19.07
2023-05-03T05:39:50.187Z,18.40
2023-05-03T05:42:25.282Z,25.27
2023-05-03T05:44:52.698Z,20.73
2023-05-03T05:47:26.481Z,30.00
2023-05-03T05:49:54.554Z,19.53
2023-05-03T05:52:29.295Z,21.10
2023-05-03T05:55:03.245Z,17.87
2023-05-03T05:57:37.266Z,19.60
2023-05-03T06:00:21.324Z,23.23
2023-05-03T06:02:55.242Z,25.37
2023-05-03T06:05:30.950Z,22.10
2023-05-03T06:07:58.724Z,19.57
2023-05-03T06:10:33.218Z,23.97
2023-05-03T06:13:00.885Z,18.70
2023-05-03T06:15:34.510Z,16.80
2023-05-03T06:18:09.334Z,16.03
2023-05-03T06:20:44.282Z,16.13
2023-05-03T06:23:11.755Z,16.93
2023-05-03T06:25:46.351Z,14.57
2023-05-03T06:28:14.203Z,17.93
2023-05-03T06:30:48.261Z,17.13
2023-05-03T06:33:22.432Z,17.77
2023-05-03T06:35:50.219Z,14.00
2023-05-03T06:38:25.479Z,17.70
2023-05-03T06:40:53.026Z,14.40
2023-05-03T06:43:28.381Z,21.63
2023-05-03T06:45:56.040Z,13.70
2023-05-03T06:48:30.309Z,16.20
2023-05-03T06:51:04.284Z,12.90
2023-05-03T06:53:38.261Z,13.35
2023-05-03T06:56:14.408Z,12.23
2023-05-03T06:58:41.963Z,12.63
2023-05-03T07:01:16.358Z,11.63
2023-05-03T07:03:58.564Z,12.68
2023-05-03T07:06:40.786Z,12.97
2023-05-03T07:09:22.057Z,12.75
2023-05-03T07:11:56.538Z,13.10
2023-05-03T07:14:31.444Z,12.95
2023-05-03T07:17:05.249Z,11.25
2023-05-03T07:19:39.208Z,11.77
2023-05-03T07:22:14.403Z,11.13
2023-05-03T07:24:48.492Z,10.98
2023-05-03T07:27:23.320Z,11.25
2023-05-03T07:29:58.366Z,11.32
2023-05-03T07:32:32.404Z,11.27
2023-05-03T07:35:07.253Z,10.65
2023-05-03T07:37:34.917Z,11.15
2023-05-03T07:40:09.301Z,10.13
2023-05-03T07:42:38.700Z,10.35
2023-05-03T07:45:13.334Z,10.60
2023-05-03T07:47:41.254Z,10.55
2023-05-03T07:50:16.346Z,9.98
2023-05-03T07:52:43.824Z,9.27
2023-05-03T07:55:18.277Z,10.77
2023-05-03T07:57:52.219Z,9.82
2023-05-03T08:00:20.450Z,9.60
2023-05-03T08:03:01.364Z,10.05
2023-05-03T08:05:36.819Z,9.68
2023-05-03T08:08:12.357Z,8.55
2023-05-03T08:10:42.550Z,9.52
2023-05-03T08:13:17.277Z,9.90
2023-05-03T08:15:52.289Z,9.85
2023-05-03T08:18:27.229Z,8.70
2023-05-03T08:20:54.893Z,9.20
2023-05-03T08:23:29.375Z,9.65
2023-05-03T08:26:01.005Z,8.88
2023-05-03T08:28:37.332Z,8.90
2023-05-03T08:31:06.872Z,9.57
2023-05-03T08:33:41.278Z,9.00
2023-05-03T08:36:08.953Z,8.52
2023-05-03T08:38:48.378Z,9.25
2023-05-03T08:41:30.974Z,9.50
2023-05-03T08:44:11.667Z,8.23
2023-05-03T08:46:39.313Z,9.68
2023-05-03T08:49:16.382Z,9.40
2023-05-03T08:51:49.895Z,9.35
2023-05-03T08:54:27.462Z,9.00
2023-05-03T08:57:01.474Z,8.75
2023-05-03T08:59:36.356Z,8.45
2023-05-03T09:02:05.310Z,8.30
2023-05-03T09:04:47.452Z,9.50
2023-05-03T09:07:17.135Z,9.30
2023-05-03T09:09:52.329Z,8.93
2023-05-03T09:12:48.372Z,8.88
2023-05-03T09:15:29.194Z,8.77
2023-05-03T09:18:25.283Z,9.70
2023-05-03T09:20:59.388Z,8.70
2023-05-03T09:23:27.235Z,8.82
2023-05-03T09:26:03.350Z,9.18
2023-05-03T09:28:41.349Z,9.35
2023-05-03T09:31:16.233Z,9.27
2023-05-03T09:33:50.310Z,9.15
2023-05-03T09:36:24.246Z,8.23
2023-05-03T09:38:54.082Z,9.05
2023-05-03T09:41:38.218Z,8.40
2023-05-03T09:44:13.370Z,8.38
2023-05-03T09:47:09.363Z,8.85
2023-05-03T09:49:44.864Z,8.52
2023-05-03T09:52:12.784Z,8.65
2023-05-03T09:54:47.556Z,8.60
2023-05-03T09:57:16.222Z,9.43
2023-05-03T09:59:53.340Z,7.57
2023-05-03T10:02:22.970Z,8.50
2023-05-03T10:05:06.449Z,8.18
2023-05-03T10:07:34.690Z,7.75
2023-05-03T10:10:11.546Z,7.68
2023-05-03T10:12:46.283Z,7.68
2023-05-03T10:15:18.048Z,7.80
2023-05-03T10:17:54.396Z,8.18
2023-05-03T10:20:36.134Z,8.65
2023-05-03T10:23:18.689Z,8.70
2023-05-03T10:26:14.604Z,8.63
2023-05-03T10:28:48.413Z,8.65
2023-05-03T10:31:46.109Z,8.32
2023-05-03T10:34:34.802Z,8.45
2023-05-03T10:37:08.411Z,8.23
2023-05-03T10:39:42.580Z,8.07
2023-05-03T10:42:11.459Z,7.70
2023-05-03T10:45:09.301Z,7.30
2023-05-03T10:47:47.359Z,8.98
2023-05-03T10:50:24.342Z,8.43
2023-05-03T10:52:53.932Z,8.32
2023-05-03T10:55:31.374Z,8.05
2023-05-03T10:58:11.245Z,7.85
2023-05-03T11:00:44.269Z,7.28
2023-05-03T11:04:02.483Z,8.32
2023-05-03T11:06:47.269Z,7.78
2023-05-03T11:09:22.272Z,8.88
2023-05-03T11:11:50.215Z,8.27
2023-05-03T11:14:24.407Z,8.45
2023-05-03T11:16:52.033Z,8.15
2023-05-03T11:19:28.350Z,8.82
2023-05-03T11:21:56.180Z,8.73
2023-05-03T11:24:30.363Z,8.30
2023-05-03T11:27:07.760Z,8.07
2023-05-03T11:29:39.431Z,9.02
2023-05-03T11:32:16.420Z,8.23
2023-05-03T11:34:44.427Z,7.95
2023-05-03T11:37:18.523Z,9.05
2023-05-03T11:39:47.958Z,9.20
2023-05-03T11:42:22.479Z,8.50
2023-05-03T11:44:56.331Z,8.13
2023-05-03T11:47:25.429Z,8.40
2023-05-03T11:50:04.400Z,7.78
2023-05-03T11:52:33.647Z,7.68
2023-05-03T11:55:11.435Z,7.55
2023-05-03T11:57:49.407Z,7.35
2023-05-03T12:00:24.354Z,7.80
2023-05-03T12:02:53.502Z,7.00
2023-05-03T12:05:37.452Z,7.10
2023-05-03T12:08:16.032Z,7.88
2023-05-03T12:10:55.159Z,7.20
2023-05-03T12:13:50.647Z,7.85
2023-05-03T12:16:27.473Z,7.63
2023-05-03T12:19:09.706Z,6.75
2023-05-03T12:22:13.383Z,6.20
2023-05-03T12:25:00.461Z,5.30
2023-05-03T12:27:33.888Z,6.47
2023-05-03T12:30:09.365Z,6.72
2023-05-03T12:32:44.044Z,7.05
2023-05-03T12:35:19.811Z,7.15
2023-05-03T12:37:49.914Z,7.15
2023-05-03T12:40:34.243Z,6.07
2023-05-03T12:43:11.528Z,5.90
2023-05-03T12:45:40.900Z,5.97
2023-05-03T12:48:15.438Z,6.53
2023-05-03T12:50:51.879Z,6.72
2023-05-03T12:53:26.681Z,6.75
2023-05-03T12:56:03.202Z,6.30
2023-05-03T12:58:58.497Z,7.13
2023-05-03T13:04:31.152Z,6.18
2023-05-03T13:07:08.252Z,5.60
2023-05-03T13:12:20.946Z,5.25
2023-05-03T13:15:32.471Z,5.15
2023-05-03T13:18:08.411Z,5.53
2023-05-03T13:20:39.068Z,5.55
2023-05-03T13:23:13.418Z,5.10
2023-05-03T13:25:48.369Z,6.00
2023-05-03T13:28:26.366Z,5.13
2023-05-03T13:31:01.425Z,5.50
2023-05-03T13:33:44.366Z,5.60
2023-05-03T13:36:18.377Z,5.50
2023-05-03T13:38:53.385Z,5.03
2023-05-03T13:41:28.439Z,5.18
2023-05-03T13:43:55.885Z,4.95
2023-05-03T13:46:30.610Z,5.30
2023-05-03T13:49:04.388Z,5.07
2023-05-03T13:51:38.373Z,4.75
2023-05-03T13:54:14.481Z,4.63
2023-05-03T13:56:43.325Z,5.53
2023-05-03T13:59:23.379Z,5.00
2023-05-03T14:01:51.900Z,4.35
2023-05-03T14:04:33.815Z,4.50
2023-05-03T14:07:14.311Z,4.93
2023-05-03T14:09:49.440Z,4.82
2023-05-03T14:12:17.161Z,5.38
2023-05-03T14:14:52.403Z,5.28
2023-05-03T14:17:21.923Z,5.20
2023-05-03T14:19:56.541Z,4.97
2023-05-03T14:22:24.062Z,4.93
2023-05-03T14:24:59.374Z,4.90
2023-05-03T14:27:33.372Z,4.95
2023-05-03T14:30:01.054Z,5.20
2023-05-03T14:32:35.407Z,5.07
2023-05-03T14:35:03.049Z,4.78
2023-05-03T14:37:40.375Z,4.90
2023-05-03T14:40:09.165Z,5.22
2023-05-03T14:42:43.434Z,5.65
2023-05-03T14:45:21.463Z,5.80
2023-05-03T14:47:55.405Z,4.93
2023-05-03T14:50:22.869Z,5.68
2023-05-03T14:52:58.389Z,4.68
2023-05-03T14:55:25.646Z,5.35
2023-05-03T14:58:02.449Z,4.82
2023-05-03T15:00:30.107Z,5.35
2023-05-03T15:03:04.542Z,4.20
2023-05-03T15:05:48.533Z,4.00
2023-05-03T15:08:26.426Z,5.13
2023-05-03T15:11:01.413Z,5.05
2023-05-03T15:13:35.529Z,5.43
2023-05-03T15:16:10.733Z,4.78
2023-05-03T15:18:38.138Z,5.63
2023-05-03T15:21:14.454Z,4.68
2023-05-03T15:23:42.272Z,4.75
2023-05-03T15:26:16.479Z,4.70
2023-05-03T15:28:44.224Z,4.22
2023-05-03T15:31:21.635Z,4.22
2023-05-03T15:33:51.511Z,3.83
2023-05-03T15:36:18.880Z,4.80
2023-05-03T15:38:54.506Z,4.78
2023-05-03T15:41:30.402Z,5.10
2023-05-03T15:44:04.480Z,5.15
2023-05-03T15:46:34.841Z,4.30
2023-05-03T15:49:11.387Z,4.70
2023-05-03T15:51:39.410Z,3.45
2023-05-03T15:54:13.365Z,3.90
2023-05-03T15:56:47.377Z,4.22
2023-05-03T15:59:21.400Z,3.90
2023-05-03T16:01:55.366Z,3.75
2023-05-03T16:04:29.392Z,3.95
2023-05-03T16:07:10.379Z,3.85
2023-05-03T16:09:44.406Z,4.30
2023-05-03T16:12:11.694Z,4.30
2023-05-03T16:14:45.366Z,3.85
2023-05-03T16:17:19.342Z,4.10
2023-05-03T16:19:53.359Z,4.90
2023-05-03T16:22:27.322Z,4.38
2023-05-03T16:25:01.411Z,4.72
2023-05-03T16:27:28.466Z,4.88
2023-05-03T16:30:02.541Z,4.00
2023-05-03T16:32:36.341Z,27.27
2023-05-03T16:35:11.416Z,3.80
2023-05-03T16:37:45.457Z,4.40
2023-05-03T16:40:19.423Z,4.80
2023-05-03T16:42:52.476Z,4.55
2023-05-03T16:45:26.446Z,4.38
2023-05-03T16:47:53.621Z,4.55
2023-05-03T16:50:27.369Z,4.07
2023-05-03T16:53:01.371Z,4.32
2023-05-03T16:55:35.369Z,3.92
2023-05-03T16:58:02.382Z,4.38
2023-05-03T17:00:37.344Z,4.13
2023-05-03T17:03:05.671Z,4.47
2023-05-03T17:05:46.366Z,3.55
2023-05-03T17:08:26.318Z,4.53
2023-05-03T17:11:01.415Z,4.40
2023-05-03T17:13:35.368Z,3.80
2023-05-03T17:16:22.382Z,3.88
2023-05-03T17:18:50.041Z,4.40
2023-05-03T17:21:25.347Z,4.43
2023-05-03T17:23:59.345Z,4.32
2023-05-03T17:26:33.374Z,3.92
2023-05-03T17:29:07.637Z,3.80
2023-05-03T17:31:34.763Z,3.90
2023-05-03T17:34:08.410Z,3.85
2023-05-03T17:36:35.487Z,4.50
2023-05-03T17:39:09.325Z,4.10
2023-05-03T17:41:46.354Z,4.30
2023-05-03T17:44:21.375Z,4.10
2023-05-03T17:46:55.405Z,4.45
2023-05-03T17:49:31.123Z,4.63
2023-05-03T17:52:05.343Z,4.50
2023-05-03T17:54:39.653Z,4.82
2023-05-03T17:57:13.344Z,4.35
2023-05-03T17:59:47.376Z,4.82
2023-05-03T18:02:14.550Z,4.75
2023-05-03T18:04:48.388Z,5.43
2023-05-03T18:07:15.826Z,4.78
2023-05-03T18:09:49.374Z,4.45
2023-05-03T18:12:23.329Z,4.90
2023-05-03T18:14:57.393Z,4.95
2023-05-03T18:17:31.382Z,4.55
2023-05-03T18:19:58.417Z,4.90
2023-05-03T18:22:34.364Z,5.18
2023-05-03T18:25:06.227Z,4.72
2023-05-03T18:27:45.514Z,5.05
2023-05-03T18:30:13.322Z,5.05
2023-05-03T18:32:46.420Z,4.90
2023-05-03T18:35:20.354Z,5.22
2023-05-03T18:37:47.440Z,5.00
2023-05-03T18:40:25.390Z,5.05
2023-05-03T18:42:53.884Z,5.22
2023-05-03T18:45:27.403Z,4.88
2023-05-03T18:47:54.492Z,5.10
2023-05-03T18:50:22.059Z,4.72
2023-05-03T18:52:57.382Z,5.43
2023-05-03T18:55:33.546Z,5.15
2023-05-03T18:58:07.361Z,4.97
2023-05-03T19:00:37.351Z,5.22
2023-05-03T19:03:12.476Z,5.22
2023-05-03T19:05:46.594Z,5.68
2023-05-03T19:08:20.405Z,5.43
2023-05-03T19:10:55.352Z,5.70
2023-05-03T19:13:29.411Z,5.32
2023-05-03T19:15:56.633Z,5.45
2023-05-03T19:18:31.487Z,5.53
2023-05-03T19:21:05.391Z,5.20
2023-05-03T19:23:41.653Z,5.43
2023-05-03T19:26:08.939Z,5.57
2023-05-03T19:28:42.424Z,6.15
2023-05-03T19:31:09.652Z,5.20
2023-05-03T19:33:43.380Z,6.00
2023-05-03T19:36:23.664Z,5.47
2023-05-03T19:38:57.382Z,5.60
2023-05-03T19:41:25.410Z,6.50
2023-05-03T19:44:03.820Z,5.65
2023-05-03T19:46:31.219Z,5.70
2023-05-03T19:49:04.372Z,5.25
2023-05-03T19:51:32.948Z,6.13
2023-05-03T19:54:12.403Z,6.27
2023-05-03T19:56:39.439Z,6.13
2023-05-03T19:59:13.431Z,6.47
2023-05-03T20:01:40.740Z,6.50
2023-05-03T20:04:14.477Z,6.55
2023-05-03T20:06:48.130Z,6.00
2023-05-03T20:09:24.883Z,5.90
2023-05-03T20:12:02.250Z,6.30
2023-05-03T20:14:35.614Z,5.70
2023-05-03T20:17:09.445Z,6.10
2023-05-03T20:19:43.405Z,5.90
2023-05-03T20:22:18.612Z,6.50
2023-05-03T20:24:52.664Z,5.97
2023-05-03T20:27:26.426Z,10.87
2023-05-03T20:30:00.479Z,7.70
2023-05-03T20:32:34.464Z,9.07
2023-05-03T20:35:08.442Z,6.03
2023-05-03T20:37:42.449Z,6.27
2023-05-03T20:40:11.486Z,5.53
2023-05-03T20:42:46.883Z,5.10
2023-05-03T20:45:13.991Z,6.00
2023-05-03T20:47:47.499Z,6.00
2023-05-03T20:50:22.396Z,5.77
2023-05-03T20:52:55.419Z,5.63
2023-05-03T20:55:22.886Z,5.83
2023-05-03T20:57:57.416Z,5.50
2023-05-03T21:00:28.964Z,5.50
2023-05-03T21:03:04.037Z,5.70
2023-05-03T21:05:37.468Z,6.13
2023-05-03T21:08:13.920Z,5.00
2023-05-03T21:10:47.479Z,5.87
2023-05-03T21:13:21.432Z,5.53
2023-05-03T21:15:48.531Z,5.77
2023-05-03T21:18:22.415Z,6.60
2023-05-03T21:20:56.410Z,6.27
2023-05-03T21:23:30.426Z,5.77
2023-05-03T21:25:58.886Z,8.13
2023-05-03T21:28:32.435Z,9.27
2023-05-03T21:31:06.446Z,9.67
2023-05-03T21:33:33.784Z,11.20
2023-05-03T21:36:10.022Z,12.73
2023-05-03T21:38:43.392Z,8.63
2023-05-03T21:41:18.419Z,11.73
2023-05-03T21:43:52.395Z,11.63
2023-05-03T21:46:19.493Z,11.77
2023-05-03T21:48:53.427Z,7.27
2023-05-03T21:51:29.382Z,6.63
2023-05-03T21:54:05.332Z,6.17
2023-05-03T21:56:33.588Z,6.20
2023-05-03T21:59:08.427Z,6.47
2023-05-03T22:01:41.462Z,6.43
2023-05-03T22:04:15.435Z,6.20
2023-05-03T22:06:49.033Z,5.80
2023-05-03T22:09:22.448Z,5.97
2023-05-03T22:11:57.662Z,6.30
2023-05-03T22:14:24.841Z,6.60
2023-05-03T22:16:59.412Z,6.20
2023-05-03T22:19:30.025Z,6.67
2023-05-03T22:21:57.027Z,5.93
2023-05-03T22:24:33.435Z,6.83
2023-05-03T22:27:00.460Z,5.77
2023-05-03T22:29:35.459Z,6.10
2023-05-03T22:32:03.746Z,6.10
2023-05-03T22:34:38.428Z,6.10
2023-05-03T22:37:14.658Z,5.53
2023-05-03T22:39:49.589Z,5.90
2023-05-03T22:42:17.695Z,5.77
2023-05-03T22:44:51.397Z,6.17
2023-05-03T22:47:18.733Z,6.07
2023-05-03T22:49:52.421Z,5.80
2023-05-03T22:52:19.533Z,5.80
2023-05-03T22:54:53.403Z,5.97
2023-05-03T22:57:26.394Z,5.73
2023-05-03T22:59:59.502Z,5.93
2023-05-03T23:02:33.534Z,6.30
2023-05-03T23:05:07.406Z,5.90
2023-05-03T23:07:47.453Z,6.40
2023-05-03T23:10:22.597Z,6.00
2023-05-03T23:12:52.917Z,6.00
2023-05-03T23:15:26.415Z,5.50
2023-05-03T23:17:53.482Z,6.20
2023-05-03T23:20:27.506Z,6.00
2023-05-03T23:22:56.297Z,6.30
2023-05-03T23:25:31.447Z,6.17
2023-05-03T23:27:58.527Z,5.50
2023-05-03T23:30:32.418Z,5.77
2023-05-03T23:33:07.535Z,6.57
2023-05-03T23:35:41.460Z,5.37
2023-05-03T23:38:17.343Z,5.40
2023-05-03T23:40:50.433Z,6.20
2023-05-03T23:43:18.602Z,6.20
2023-05-03T23:45:53.456Z,5.80
2023-05-03T23:48:27.031Z,5.80
2023-05-03T23:51:00.411Z,5.70
2023-05-03T23:53:33.448Z,5.10
2023-05-03T23:56:00.446Z,5.63
2023-05-03T23:58:33.451Z,5.00
